DAL2496 PACD-PADQ

Flight info

Callsign DAL2496
Flight time 0h 57m
Altitude 35000
Route WETSI2 BINAL PDN
Aircraft A319/M-SDE3FGHIRWY/LB1

Departure

Time 2026-04-19 00:45
Airport Cold Bay Airport (PACD)

Arrival

Time 2026-04-19 01:42
Airport Kodiak Airport (PADQ)
Time Latitude Longitude Altitude Speed Heading
2026-04-19 00:15 55.20188 -162.72009 180 ft 0 kts 244°
2026-04-19 00:25 55.20188 -162.72008 143 ft 0 kts 244°
2026-04-19 00:39 55.20185 -162.72021 143 ft 4 kts 244°
2026-04-19 00:39 55.20168 -162.72102 143 ft 11 kts 252°
2026-04-19 00:39 55.20137 -162.72253 142 ft 14 kts 250°
2026-04-19 00:39 55.20216 -162.72399 141 ft 15 kts 338°
2026-04-19 00:40 55.20278 -162.72444 141 ft 14 kts 337°
2026-04-19 00:40 55.20371 -162.72509 142 ft 15 kts 338°
2026-04-19 00:40 55.20485 -162.72588 145 ft 20 kts 338°
2026-04-19 00:40 55.20638 -162.72694 147 ft 25 kts 338°
2026-04-19 00:41 55.20802 -162.72807 146 ft 25 kts 339°
2026-04-19 00:41 55.20964 -162.72918 145 ft 25 kts 339°
2026-04-19 00:41 55.21125 -162.73027 146 ft 24 kts 339°
2026-04-19 00:41 55.21279 -162.73134 148 ft 23 kts 339°
2026-04-19 00:42 55.21425 -162.73234 148 ft 22 kts 339°
2026-04-19 00:42 55.21564 -162.73335 147 ft 22 kts 336°
2026-04-19 00:42 55.21704 -162.73441 147 ft 22 kts 336°
2026-04-19 00:42 55.21845 -162.73531 149 ft 21 kts 340°
2026-04-19 00:43 55.21973 -162.73616 151 ft 19 kts 339°
2026-04-19 00:43 55.22094 -162.73699 153 ft 18 kts 338°
2026-04-19 00:43 55.22212 -162.73756 153 ft 14 kts 341°
2026-04-19 00:43 55.22219 -162.73805 153 ft 2 kts 190°
2026-04-19 00:44 55.22199 -162.73780 153 ft 7 kts 144°
2026-04-19 00:44 55.22156 -162.73747 153 ft 6 kts 154°
2026-04-19 00:44 55.22058 -162.73676 153 ft 43 kts 159°
2026-04-19 00:44 55.21513 -162.73297 149 ft 121 kts 158°
2026-04-19 00:45 55.20620 -162.72677 546 ft 147 kts 156°
2026-04-19 00:45 55.19788 -162.71605 1385 ft 157 kts 129°
2026-04-19 00:45 55.19671 -162.69560 2125 ft 194 kts 90°
2026-04-19 00:45 55.20474 -162.67342 2584 ft 241 kts 50°
2026-04-19 00:46 55.22042 -162.65890 2969 ft 272 kts 12°
2026-04-19 00:46 55.23974 -162.65804 3408 ft 292 kts 346°
2026-04-19 00:46 55.25991 -162.66677 4104 ft 303 kts 335°
2026-04-19 00:46 55.27993 -162.67920 5096 ft 307 kts 332°
2026-04-19 00:47 55.30042 -162.69151 6107 ft 318 kts 342°
2026-04-19 00:47 55.32289 -162.69027 6979 ft 333 kts 16°
2026-04-19 00:47 55.34360 -162.67218 7932 ft 334 kts 38°
2026-04-19 00:47 55.36144 -162.64582 8900 ft 336 kts 48°
2026-04-19 00:48 55.37787 -162.61640 9810 ft 340 kts 51°
2026-04-19 00:48 55.39453 -162.58572 10389 ft 357 kts 49°
2026-04-19 00:48 55.41262 -162.55358 10720 ft 382 kts 47°
2026-04-19 00:48 55.43215 -162.52059 10990 ft 406 kts 45°
2026-04-19 00:49 55.45345 -162.48632 11401 ft 422 kts 43°
2026-04-19 00:49 55.47567 -162.45188 12054 ft 430 kts 41°
2026-04-19 00:49 55.49848 -162.41716 12753 ft 436 kts 40°
2026-04-19 00:49 55.52168 -162.38201 13477 ft 443 kts 39°
2026-04-19 00:50 55.54514 -162.34626 14127 ft 448 kts 40°
2026-04-19 00:50 55.56873 -162.30994 14809 ft 451 kts 40°
2026-04-19 00:50 55.59231 -162.27332 15561 ft 452 kts 40°
2026-04-19 00:50 55.61566 -162.23685 16235 ft 456 kts 40°
2026-04-19 00:51 55.63947 -162.19950 16901 ft 459 kts 41°
2026-04-19 00:51 55.66342 -162.16188 17562 ft 463 kts 41°
2026-04-19 00:51 55.68763 -162.12383 18193 ft 467 kts 41°
2026-04-19 00:51 55.71203 -162.08546 18757 ft 471 kts 40°
2026-04-19 00:52 55.73660 -162.04678 19305 ft 474 kts 40°
2026-04-19 00:52 55.76067 -162.00651 19837 ft 478 kts 46°
2026-04-19 00:52 55.78155 -161.96041 20370 ft 481 kts 56°
2026-04-19 00:52 55.79995 -161.91164 20945 ft 482 kts 57°
2026-04-19 00:53 55.81860 -161.86190 21471 ft 485 kts 57°
2026-04-19 00:53 55.83738 -161.81186 21970 ft 488 kts 57°
2026-04-19 00:53 55.85634 -161.76149 22450 ft 491 kts 56°
2026-04-19 00:53 55.87540 -161.71075 22921 ft 495 kts 56°
2026-04-19 00:54 55.89460 -161.65966 23366 ft 498 kts 56°
2026-04-19 00:54 55.91394 -161.60822 23731 ft 501 kts 56°
2026-04-19 00:54 55.93334 -161.55652 24140 ft 503 kts 56°
2026-04-19 00:54 55.95254 -161.50511 24487 ft 506 kts 56°
2026-04-19 00:55 55.97201 -161.45264 24818 ft 510 kts 56°
2026-04-19 00:55 55.99160 -161.39958 25161 ft 513 kts 56°
2026-04-19 00:55 56.01126 -161.34608 25489 ft 517 kts 56°
2026-04-19 00:55 56.03107 -161.29214 25822 ft 521 kts 56°
2026-04-19 00:56 56.05106 -161.23779 26133 ft 525 kts 56°
2026-04-19 00:56 56.07117 -161.18309 26431 ft 528 kts 56°
2026-04-19 00:56 56.09146 -161.12786 26723 ft 532 kts 56°
2026-04-19 00:56 56.11178 -161.07239 27006 ft 535 kts 56°
2026-04-19 00:57 56.13223 -161.01635 27283 ft 539 kts 56°
2026-04-19 00:57 56.15251 -160.96062 27559 ft 542 kts 56°
2026-04-19 00:57 56.17317 -160.90373 27869 ft 546 kts 56°
2026-04-19 00:57 56.19392 -160.84646 28161 ft 549 kts 56°
2026-04-19 00:58 56.21472 -160.78890 28466 ft 550 kts 56°
2026-04-19 00:58 56.23550 -160.73124 28878 ft 550 kts 56°
2026-04-19 00:58 56.25628 -160.67348 29274 ft 550 kts 56°
2026-04-19 00:58 56.27680 -160.61636 29656 ft 551 kts 56°
2026-04-19 00:59 56.29781 -160.55764 30026 ft 552 kts 56°
2026-04-19 00:59 56.31831 -160.50022 30375 ft 552 kts 56°
2026-04-19 00:59 56.33906 -160.44183 30742 ft 552 kts 56°
2026-04-19 00:59 56.35969 -160.38372 31123 ft 551 kts 57°
2026-04-19 01:00 56.38035 -160.32557 31533 ft 550 kts 57°
2026-04-19 01:00 56.40091 -160.26751 31971 ft 548 kts 57°
2026-04-19 01:00 56.42138 -160.20959 32403 ft 546 kts 57°
2026-04-19 01:00 56.44177 -160.15182 32832 ft 545 kts 57°
2026-04-19 01:01 56.46178 -160.09489 33263 ft 543 kts 58°
2026-04-19 01:01 56.48194 -160.03730 33707 ft 541 kts 58°
2026-04-19 01:01 56.50202 -159.97984 34098 ft 539 kts 58°
2026-04-19 01:01 56.52199 -159.92255 34512 ft 536 kts 57°
2026-04-19 01:02 56.54183 -159.86553 34768 ft 534 kts 57°
2026-04-19 01:02 56.56159 -159.80859 34862 ft 535 kts 57°
2026-04-19 01:02 56.60103 -159.69446 34850 ft 539 kts 57°
2026-04-19 01:03 56.64071 -159.57908 34849 ft 539 kts 57°
2026-04-19 01:03 56.68037 -159.46327 34852 ft 539 kts 57°
2026-04-19 01:04 56.71995 -159.34723 34852 ft 539 kts 57°
2026-04-19 01:04 56.75938 -159.23092 34880 ft 540 kts 57°
2026-04-19 01:05 56.79848 -159.11517 34853 ft 540 kts 57°
2026-04-19 01:05 56.83783 -158.99826 34842 ft 540 kts 56°
2026-04-19 01:06 56.87699 -158.88103 34866 ft 540 kts 56°
2026-04-19 01:06 56.91598 -158.76359 34884 ft 540 kts 57°
2026-04-19 01:07 56.95338 -158.64437 34869 ft 541 kts 64°
2026-04-19 01:07 56.97873 -158.51573 34869 ft 541 kts 71°
2026-04-19 01:08 57.00271 -158.38505 34904 ft 540 kts 71°
2026-04-19 01:08 57.02661 -158.25437 34868 ft 539 kts 71°
2026-04-19 01:09 57.05016 -158.12386 34914 ft 537 kts 71°
2026-04-19 01:09 57.07326 -157.99457 34920 ft 536 kts 71°
2026-04-19 01:10 57.09648 -157.86446 34955 ft 535 kts 70°
2026-04-19 01:10 57.11951 -157.73445 34941 ft 534 kts 71°
2026-04-19 01:11 57.14237 -157.60440 34957 ft 534 kts 71°
2026-04-19 01:11 57.16490 -157.47528 34933 ft 533 kts 70°
2026-04-19 01:12 57.18745 -157.34496 34970 ft 533 kts 71°
2026-04-19 01:12 57.20977 -157.21484 34970 ft 532 kts 71°
2026-04-19 01:13 57.23201 -157.08448 34967 ft 533 kts 71°
2026-04-19 01:13 57.25406 -156.95492 34974 ft 532 kts 71°
2026-04-19 01:14 57.27607 -156.82449 34970 ft 532 kts 71°
2026-04-19 01:14 57.29786 -156.69356 34979 ft 532 kts 70°
2026-04-19 01:15 57.31949 -156.56287 34976 ft 532 kts 71°
2026-04-19 01:15 57.34088 -156.43289 34987 ft 532 kts 71°
2026-04-19 01:16 57.36230 -156.30178 35014 ft 532 kts 70°
2026-04-19 01:16 57.38360 -156.17051 34988 ft 532 kts 71°
2026-04-19 01:17 57.40470 -156.03916 34990 ft 532 kts 71°
2026-04-19 01:17 57.42573 -155.90748 34988 ft 532 kts 70°
2026-04-19 01:18 57.44653 -155.77664 35006 ft 532 kts 70°
2026-04-19 01:18 57.46725 -155.64481 35010 ft 532 kts 71°
2026-04-19 01:19 57.48784 -155.51289 35024 ft 531 kts 71°
2026-04-19 01:19 57.50829 -155.38078 35037 ft 532 kts 71°
2026-04-19 01:20 57.52838 -155.24938 35029 ft 532 kts 71°
2026-04-19 01:20 57.54850 -155.11697 34716 ft 531 kts 70°
2026-04-19 01:21 57.55851 -155.05083 34488 ft 531 kts 70°
2026-04-19 01:21 57.56853 -154.98468 34250 ft 531 kts 71°
2026-04-19 01:21 57.57852 -154.91836 34004 ft 531 kts 71°
2026-04-19 01:21 57.58847 -154.85201 33749 ft 532 kts 71°
2026-04-19 01:22 57.59838 -154.78567 33491 ft 532 kts 71°
2026-04-19 01:22 57.60814 -154.72001 33219 ft 533 kts 71°
2026-04-19 01:22 57.61798 -154.65336 32995 ft 533 kts 71°
2026-04-19 01:22 57.62779 -154.58656 32741 ft 534 kts 71°
2026-04-19 01:23 57.63756 -154.51964 32485 ft 535 kts 71°
2026-04-19 01:23 57.64731 -154.45260 32223 ft 535 kts 71°
2026-04-19 01:23 57.65703 -154.38543 31982 ft 536 kts 71°
2026-04-19 01:23 57.66672 -154.31849 31488 ft 534 kts 71°
2026-04-19 01:24 57.67639 -154.25145 30544 ft 535 kts 71°
2026-04-19 01:24 57.68593 -154.18503 29509 ft 537 kts 71°
2026-04-19 01:24 57.69558 -154.11754 28428 ft 537 kts 71°
2026-04-19 01:24 57.70520 -154.05005 27361 ft 536 kts 71°
2026-04-19 01:25 57.71476 -153.98270 26287 ft 535 kts 72°
2026-04-19 01:25 57.72426 -153.91547 25205 ft 534 kts 72°
2026-04-19 01:25 57.73369 -153.84838 24111 ft 532 kts 72°
2026-04-19 01:25 57.74300 -153.78170 23305 ft 525 kts 72°
2026-04-19 01:26 57.75209 -153.71617 22397 ft 517 kts 72°
2026-04-19 01:26 57.76102 -153.65146 21550 ft 509 kts 72°
2026-04-19 01:26 57.76969 -153.58858 20727 ft 502 kts 72°
2026-04-19 01:26 57.77832 -153.52576 19930 ft 494 kts 72°
2026-04-19 01:27 57.78682 -153.46379 19176 ft 488 kts 72°
2026-04-19 01:27 57.79518 -153.40268 18450 ft 481 kts 73°
2026-04-19 01:27 57.80344 -153.34222 17918 ft 477 kts 73°
2026-04-19 01:27 57.81165 -153.28192 17645 ft 476 kts 73°
2026-04-19 01:28 57.81977 -153.22196 17378 ft 474 kts 73°
2026-04-19 01:28 57.82782 -153.16224 16891 ft 470 kts 73°
2026-04-19 01:28 57.83567 -153.10361 15926 ft 469 kts 73°
2026-04-19 01:28 57.84347 -153.04481 15180 ft 461 kts 73°
2026-04-19 01:29 57.85115 -152.98662 14604 ft 453 kts 73°
2026-04-19 01:29 57.85849 -152.93053 14491 ft 434 kts 73°
2026-04-19 01:29 57.86554 -152.87647 14367 ft 417 kts 73°
2026-04-19 01:29 57.87235 -152.82463 14239 ft 400 kts 72°
2026-04-19 01:30 57.87890 -152.77485 14118 ft 385 kts 72°
2026-04-19 01:30 57.88514 -152.72720 13995 ft 366 kts 72°
2026-04-19 01:30 57.89104 -152.68188 13875 ft 348 kts 72°
2026-04-19 01:30 57.89656 -152.63929 13757 ft 334 kts 72°
2026-04-19 01:31 57.90198 -152.59740 13524 ft 326 kts 72°
2026-04-19 01:31 57.90731 -152.55628 13060 ft 322 kts 72°
2026-04-19 01:31 57.91256 -152.51552 12600 ft 319 kts 73°
2026-04-19 01:31 57.91776 -152.47512 12134 ft 316 kts 73°
2026-04-19 01:32 57.92290 -152.43510 11623 ft 313 kts 73°
2026-04-19 01:32 57.92796 -152.39551 11124 ft 310 kts 74°
2026-04-19 01:32 57.93295 -152.35608 10616 ft 308 kts 74°
2026-04-19 01:32 57.93784 -152.31762 10123 ft 305 kts 75°
2026-04-19 01:33 57.94273 -152.27908 9590 ft 302 kts 75°
2026-04-19 01:33 57.94754 -152.24081 9031 ft 299 kts 76°
2026-04-19 01:33 57.95230 -152.20291 8474 ft 296 kts 76°
2026-04-19 01:33 57.95698 -152.16545 7921 ft 292 kts 76°
2026-04-19 01:34 57.96026 -152.12804 7409 ft 286 kts 94°
2026-04-19 01:34 57.95552 -152.09329 7145 ft 267 kts 121°
2026-04-19 01:34 57.94393 -152.06743 6692 ft 254 kts 148°
2026-04-19 01:34 57.92849 -152.05415 6168 ft 244 kts 173°
2026-04-19 01:35 57.91162 -152.05258 5621 ft 239 kts 185°
2026-04-19 01:35 57.89527 -152.05313 5252 ft 238 kts 185°
2026-04-19 01:35 57.87884 -152.05365 5106 ft 236 kts 184°
2026-04-19 01:35 57.86237 -152.05416 4978 ft 236 kts 184°
2026-04-19 01:36 57.84639 -152.05459 4840 ft 224 kts 184°
2026-04-19 01:36 57.83118 -152.05600 4682 ft 214 kts 195°
2026-04-19 01:36 57.81830 -152.06781 4455 ft 204 kts 223°
2026-04-19 01:36 57.81025 -152.08908 4189 ft 201 kts 249°
2026-04-19 01:37 57.80626 -152.11367 3939 ft 199 kts 252°
2026-04-19 01:37 57.80233 -152.13843 3685 ft 196 kts 252°
2026-04-19 01:37 57.79851 -152.16231 3428 ft 186 kts 252°
2026-04-19 01:37 57.79485 -152.18496 3227 ft 178 kts 251°
2026-04-19 01:38 57.79137 -152.20650 2963 ft 167 kts 251°
2026-04-19 01:38 57.78816 -152.22643 2749 ft 153 kts 251°
2026-04-19 01:38 57.78522 -152.24464 2560 ft 140 kts 251°
2026-04-19 01:38 57.78245 -152.26170 2389 ft 137 kts 252°
2026-04-19 01:39 57.77972 -152.27842 2209 ft 135 kts 251°
2026-04-19 01:39 57.77697 -152.29529 2024 ft 136 kts 252°
2026-04-19 01:39 57.77420 -152.31223 1845 ft 135 kts 252°
2026-04-19 01:39 57.77143 -152.32917 1658 ft 136 kts 253°
2026-04-19 01:40 57.76867 -152.34610 1477 ft 136 kts 253°
2026-04-19 01:40 57.76592 -152.36297 1292 ft 135 kts 253°
2026-04-19 01:40 57.76317 -152.37985 1103 ft 136 kts 253°
2026-04-19 01:40 57.76040 -152.39686 909 ft 137 kts 253°
2026-04-19 01:41 57.75762 -152.41401 735 ft 144 kts 254°
2026-04-19 01:41 57.75468 -152.43208 565 ft 145 kts 253°
2026-04-19 01:41 57.75188 -152.45004 365 ft 142 kts 259°
2026-04-19 01:41 57.75111 -152.46826 205 ft 137 kts 272°
2026-04-19 01:42 57.75154 -152.48588 81 ft 130 kts 272°
2026-04-19 01:42 57.75181 -152.50020 72 ft 86 kts 272°
2026-04-19 01:42 57.75227 -152.51129 65 ft 16 kts 303°
2026-04-19 01:43 57.75289 -152.51256 62 ft 11 kts 335°
2026-04-19 01:43 57.75324 -152.51285 65 ft 3 kts 335°
2026-04-19 01:43 57.75325 -152.51306 68 ft 2 kts 259°
2026-04-19 01:43 57.75320 -152.51364 70 ft 8 kts 266°
2026-04-19 01:44 57.75321 -152.51482 72 ft 9 kts 272°
2026-04-19 01:44 57.75330 -152.51577 65 ft 6 kts 304°
2026-04-19 01:44 57.75371 -152.51596 65 ft 7 kts 27°
2026-04-19 01:44 57.75381 -152.51524 72 ft 0 kts 89°